Time;durP1;ratioP1;P1;durP2;ratioP2;P2;SDS_P1;SDS_P2;PMS_P1;PMS_P2;Temp;Humidity;BMP_temperature;BMP_pressure;BME280_temperature;BME280_humidity;BME280_pressure;Samples;Min_cycle;Max_cycle;Signal;HPM_P1;HPM_P2
2022/10/19 00:00:11;;;;;;;;;2.00;2.00;;;;;22.73;59.97;101433.87;105551;1297;19351;-57
2022/10/19 00:02:59;;;;;;;;;3.00;3.00;;;;;22.73;60.09;101426.73;105462;1291;20646;-52
2022/10/19 00:05:26;;;;;;;;;;;;;;;22.73;60.14;101423.14;105471;1298;18516;-54
2022/10/19 00:07:54;;;;;;;;;2.00;2.00;;;;;22.72;60.19;101421.20;105530;1278;19828;-55
2022/10/19 00:10:21;;;;;;;;;2.00;2.00;;;;;22.73;60.15;101420.20;105293;1299;19853;-55
2022/10/19 00:12:48;;;;;;;;;2.50;2.50;;;;;22.73;60.12;101422.94;105389;1281;18463;-55
2022/10/19 00:15:16;;;;;;;;;2.00;2.00;;;;;22.72;60.01;101415.90;105439;1284;19992;-52
2022/10/19 00:17:43;;;;;;;;;2.00;2.00;;;;;22.71;60.04;101414.57;105446;1294;19500;-53
2022/10/19 00:20:10;;;;;;;;;;;;;;;22.73;60.06;101419.65;105488;1281;18861;-56
2022/10/19 00:22:37;;;;;;;;;1.50;1.50;;;;;22.72;60.00;101415.90;105522;1272;19641;-56
2022/10/19 00:25:05;;;;;;;;;2.00;2.00;;;;;22.72;59.93;101409.04;105454;1282;20448;-56
2022/10/19 00:27:32;;;;;;;;;2.00;2.00;;;;;22.71;60.11;101409.65;105613;1297;20023;-56
2022/10/19 00:30:00;;;;;;;;;1.00;1.00;;;;;22.71;60.10;101405.30;105537;1297;19285;-55
2022/10/19 00:32:27;;;;;;;;;1.00;1.00;;;;;22.71;60.02;101411.71;105552;1280;19464;-55
2022/10/19 00:34:54;;;;;;;;;2.00;2.00;;;;;22.70;60.18;101416.34;105525;1280;18498;-55
2022/10/19 00:37:22;;;;;;;;;1.00;1.00;;;;;22.71;60.16;101415.20;105344;1280;18224;-52
2022/10/19 00:39:49;;;;;;;;;1.00;1.00;;;;;22.70;60.33;101413.39;105488;1288;18086;-52
2022/10/19 00:42:16;;;;;;;;;1.00;1.00;;;;;22.71;60.11;101419.48;105552;1281;18513;-56
2022/10/19 00:44:43;;;;;;;;;2.00;2.00;;;;;22.71;60.40;101413.88;105489;1281;19767;-55
2022/10/19 00:47:10;;;;;;;;;2.00;2.00;;;;;22.70;60.34;101415.02;105492;1280;21723;-54
2022/10/19 00:49:38;;;;;;;;;1.00;1.00;;;;;22.70;60.49;101412.89;105475;1297;18483;-56
2022/10/19 00:52:05;;;;;;;;;1.50;1.50;;;;;22.70;60.49;101408.11;105470;1297;19815;-53
2022/10/19 00:54:32;;;;;;;;;1.50;1.50;;;;;22.71;60.60;101408.25;105629;1297;19223;-55
2022/10/19 00:56:59;;;;;;;;;2.00;2.00;;;;;22.71;60.48;101406.92;105500;1291;19924;-56
2022/10/19 00:59:27;;;;;;;;;1.00;1.00;;;;;22.71;60.42;101406.44;105484;1288;19834;-57
2022/10/19 01:01:54;;;;;;;;;2.00;2.00;;;;;22.70;60.62;101402.80;105415;1274;18360;-56
2022/10/19 01:04:21;;;;;;;;;1.00;1.00;;;;;22.70;60.65;101400.27;105555;1288;19985;-57
2022/10/19 01:06:48;;;;;;;;;2.00;2.00;;;;;22.70;60.54;101397.23;105566;1280;20317;-56
2022/10/19 01:09:16;;;;;;;;;2.00;2.00;;;;;22.70;60.57;101405.06;105500;1303;17813;-56
2022/10/19 01:11:43;;;;;;;;;1.50;1.50;;;;;22.70;60.47;101408.30;105538;1296;19102;-57
2022/10/19 01:14:13;;;;;;;;;1.00;1.00;;;;;22.70;60.72;101407.83;105549;1274;19703;-57
2022/10/19 01:16:40;;;;;;;;;2.00;2.00;;;;;22.71;60.72;101407.70;105480;1288;18015;-57
2022/10/19 01:19:07;;;;;;;;;2.00;2.00;;;;;22.71;60.80;101405.85;105611;1280;19888;-52
2022/10/19 01:21:34;;;;;;;;;3.00;2.00;;;;;22.71;60.58;101408.73;105508;1299;19258;-53
2022/10/19 01:24:02;;;;;;;;;2.00;2.00;;;;;22.72;60.65;101396.86;105501;1288;20886;-54
2022/10/19 01:26:29;;;;;;;;;3.00;2.00;;;;;22.71;60.51;101398.92;105430;1288;20241;-54
2022/10/19 01:28:56;;;;;;;;;2.00;2.00;;;;;22.71;60.50;101396.57;105347;1290;19675;-54
2022/10/19 01:31:23;;;;;;;;;2.00;2.00;;;;;22.70;60.54;101394.10;105457;1293;18239;-55
2022/10/19 01:33:51;;;;;;;;;2.00;2.00;;;;;22.69;60.33;101389.45;105456;1290;20338;-53
2022/10/19 01:36:18;;;;;;;;;2.00;2.00;;;;;22.70;60.40;101388.85;105533;1297;19467;-54
2022/10/19 01:38:45;;;;;;;;;2.00;2.00;;;;;22.69;60.34;101390.21;105495;1282;22086;-57
2022/10/19 01:41:12;;;;;;;;;2.00;2.00;;;;;22.69;60.21;101390.93;105486;1280;19914;-56
2022/10/19 01:43:40;;;;;;;;;2.00;2.00;;;;;22.69;59.99;101385.46;105463;1281;19587;-55
2022/10/19 01:46:07;;;;;;;;;2.00;2.00;;;;;22.68;59.95;101383.25;105531;1281;17769;-55
2022/10/19 01:48:34;;;;;;;;;1.00;1.00;;;;;22.69;60.08;101389.32;105589;1296;19954;-56
2022/10/19 01:51:01;;;;;;;;;1.50;1.50;;;;;22.68;59.85;101383.38;105559;1297;19821;-52
2022/10/19 01:53:29;;;;;;;;;2.00;2.00;;;;;22.68;60.08;101381.40;105498;1288;19468;-56
2022/10/19 01:55:56;;;;;;;;;2.00;2.00;;;;;22.66;59.90;101375.37;105482;1290;19371;-54
2022/10/19 01:58:23;;;;;;;;;2.00;2.00;;;;;22.68;59.91;101377.82;105487;1280;22815;-56
2022/10/19 02:00:50;;;;;;;;;2.00;2.00;;;;;22.67;59.74;101372.95;105421;1299;18281;-55
2022/10/19 02:03:17;;;;;;;;;3.00;2.00;;;;;22.67;59.70;101368.90;105544;1296;20059;-55
2022/10/19 02:05:45;;;;;;;;;2.00;2.00;;;;;22.67;59.76;101364.77;105494;1297;18056;-56
2022/10/19 02:08:12;;;;;;;;;2.00;2.00;;;;;22.67;59.66;101365.91;105519;1297;19504;-52
2022/10/19 02:10:39;;;;;;;;;1.50;1.50;;;;;22.66;59.57;101374.83;105495;1280;20419;-55
2022/10/19 02:13:06;;;;;;;;;2.00;2.00;;;;;22.65;59.64;101372.23;105451;1274;18097;-56
2022/10/19 02:15:34;;;;;;;;;2.00;2.00;;;;;22.66;59.47;101374.02;105529;1300;17793;-56
2022/10/19 02:18:01;;;;;;;;;2.00;2.00;;;;;22.67;59.49;101370.61;105498;1281;20238;-54
2022/10/19 02:20:28;;;;;;;;;1.00;1.00;;;;;22.66;59.53;101370.86;105536;1296;21015;-55
2022/10/19 02:22:56;;;;;;;;;1.00;1.00;;;;;22.66;59.45;101370.86;105508;1282;19273;-56
2022/10/19 02:25:23;;;;;;;;;2.00;2.00;;;;;22.65;59.36;101363.28;105532;1288;21163;-57
2022/10/19 02:27:50;;;;;;;;;1.00;1.00;;;;;22.65;59.41;101364.71;105441;1280;18144;-53
2022/10/19 02:30:17;;;;;;;;;2.00;2.00;;;;;22.65;59.25;101362.63;105626;1290;19461;-56
2022/10/19 02:32:45;;;;;;;;;2.00;2.00;;;;;22.64;59.16;101363.79;105581;1277;19986;-56
2022/10/19 02:35:12;;;;;;;;;2.50;2.00;;;;;22.64;59.12;101363.06;105606;1282;18436;-54
2022/10/19 02:37:39;;;;;;;;;2.00;2.00;;;;;22.65;59.17;101361.88;105570;1280;19178;-55
2022/10/19 02:40:06;;;;;;;;;1.50;1.50;;;;;22.65;59.31;101358.90;105608;1297;18901;-53
2022/10/19 02:42:34;;;;;;;;;2.00;2.00;;;;;22.65;59.20;101361.35;105691;1296;19694;-57
2022/10/19 02:45:01;;;;;;;;;2.00;2.00;;;;;22.64;59.14;101360.88;105631;1297;17799;-55
2022/10/19 02:47:28;;;;;;;;;2.00;2.00;;;;;22.64;59.29;101351.24;105629;1288;19212;-56
2022/10/19 02:49:55;;;;;;;;;2.00;2.00;;;;;22.64;59.22;101350.29;105597;1282;20285;-56
2022/10/19 02:52:22;;;;;;;;;2.00;2.00;;;;;22.64;59.22;101347.86;105601;1271;17793;-56
2022/10/19 02:54:50;;;;;;;;;2.50;2.50;;;;;22.65;59.14;101345.85;105589;1281;19869;-55
2022/10/19 02:57:17;;;;;;;;;2.00;2.00;;;;;22.64;59.08;101343.21;105671;1279;21855;-56
2022/10/19 02:59:44;;;;;;;;;1.00;1.00;;;;;22.63;59.22;101339.98;105618;1280;17964;-57
2022/10/19 03:02:11;;;;;;;;;1.00;1.00;;;;;22.63;59.40;101339.88;105627;1287;20034;-56
2022/10/19 03:04:40;;;;;;;;;2.00;2.00;;;;;22.62;59.24;101341.93;105602;1287;19632;-54
2022/10/19 03:07:07;;;;;;;;;1.00;1.00;;;;;22.63;59.18;101337.45;105560;1304;27702;-54
2022/10/19 03:09:34;;;;;;;;;1.00;1.00;;;;;22.64;59.25;101337.39;105714;1279;20043;-56
2022/10/19 03:12:02;;;;;;;;;1.00;1.00;;;;;22.64;59.21;101336.83;105542;1280;18137;-56
2022/10/19 03:14:29;;;;;;;;;1.00;1.00;;;;;22.64;59.39;101335.54;105563;1296;18247;-57
2022/10/19 03:16:56;;;;;;;;;1.00;1.00;;;;;22.64;59.40;101330.10;105581;1275;21381;-56
2022/10/19 03:19:23;;;;;;;;;1.50;1.50;;;;;22.62;59.40;101333.02;105586;1274;18108;-57
2022/10/19 03:21:51;;;;;;;;;1.50;1.50;;;;;22.64;59.30;101338.85;105618;1288;19225;-56
2022/10/19 03:24:18;;;;;;;;;1.00;1.00;;;;;22.63;59.43;101342.91;105664;1303;18518;-56
2022/10/19 03:26:45;;;;;;;;;1.00;1.00;;;;;22.62;59.48;101343.02;105641;1274;19959;-57
2022/10/19 03:29:12;;;;;;;;;1.00;1.00;;;;;22.62;59.47;101339.98;105607;1297;19051;-53
2022/10/19 03:31:39;;;;;;;;;3.00;1.00;;;;;22.62;59.50;101339.75;105598;1290;21943;-56
2022/10/19 03:34:07;;;;;;;;;1.00;1.00;;;;;22.62;59.62;101342.17;105613;1297;20611;-55
2022/10/19 03:36:34;;;;;;;;;2.00;1.00;;;;;22.62;59.40;101341.93;105555;1290;19552;-54
2022/10/19 03:39:01;;;;;;;;;2.00;2.00;;;;;22.63;59.51;101345.71;105597;1274;19250;-55
2022/10/19 03:41:28;;;;;;;;;1.00;1.00;;;;;22.63;59.57;101347.33;105615;1281;23826;-57
2022/10/19 03:43:56;;;;;;;;;;;;;;;22.63;59.44;101348.58;105616;1288;19195;-55
2022/10/19 03:46:23;;;;;;;;;2.00;2.00;;;;;22.64;59.37;101343.80;105626;1288;21477;-57
2022/10/19 03:48:50;;;;;;;;;1.50;1.50;;;;;22.63;59.67;101343.11;105683;1287;19197;-53
2022/10/19 03:51:17;;;;;;;;;1.00;1.00;;;;;22.63;59.42;101342.64;105638;1288;20275;-56
2022/10/19 03:53:45;;;;;;;;;1.00;1.00;;;;;22.62;59.37;101342.72;105572;1288;21821;-57
2022/10/19 03:56:12;;;;;;;;;;;;;;;22.62;59.32;101347.60;105607;1274;18139;-56
2022/10/19 03:58:39;;;;;;;;;1.00;1.00;;;;;22.61;59.31;101349.05;105636;1281;17514;-55
2022/10/19 04:01:07;;;;;;;;;1.00;1.00;;;;;22.62;59.46;101346.23;105522;1274;20129;-57
2022/10/19 04:03:34;;;;;;;;;2.00;2.00;;;;;22.61;59.44;101350.95;105677;1297;19689;-57
2022/10/19 04:06:02;;;;;;;;;1.00;1.00;;;;;22.61;59.29;101358.06;105582;1274;19294;-57
2022/10/19 04:08:29;;;;;;;;;2.00;2.00;;;;;22.62;59.34;101362.05;105534;1298;19978;-56
2022/10/19 04:10:56;;;;;;;;;2.00;2.00;;;;;22.62;59.56;101355.83;105514;1291;18315;-54
2022/10/19 04:13:23;;;;;;;;;2.00;2.00;;;;;22.61;59.44;101353.25;105502;1297;17773;-56
2022/10/19 04:15:50;;;;;;;;;1.00;1.00;;;;;22.61;59.34;101347.95;105485;1300;19225;-55
2022/10/19 04:18:18;;;;;;;;;1.00;1.00;;;;;22.61;59.30;101340.52;105536;1290;22846;-56
2022/10/19 04:20:45;;;;;;;;;2.00;2.00;;;;;22.60;59.42;101341.09;105572;1297;23193;-55
2022/10/19 04:23:12;;;;;;;;;1.00;1.00;;;;;22.61;59.30;101342.70;105562;1297;19281;-55
2022/10/19 04:25:39;;;;;;;;;1.00;1.00;;;;;22.61;59.29;101337.20;105378;1288;18514;-55
2022/10/19 04:28:07;;;;;;;;;1.50;1.50;;;;;22.60;59.32;101339.62;105504;1294;22675;-54
2022/10/19 04:30:34;;;;;;;;;2.00;2.00;;;;;22.61;59.34;101344.50;105421;1290;19292;-57
2022/10/19 04:33:01;;;;;;;;;2.00;2.00;;;;;22.61;59.29;101350.69;105494;1299;18426;-52
2022/10/19 04:35:28;;;;;;;;;1.00;1.00;;;;;22.60;59.30;101354.20;105452;1296;22265;-56
2022/10/19 04:37:56;;;;;;;;;1.00;1.00;;;;;22.60;59.42;101352.37;105506;1281;21106;-53
2022/10/19 04:40:23;;;;;;;;;1.00;1.00;;;;;22.61;59.44;101351.95;105572;1282;19527;-54
2022/10/19 04:42:50;;;;;;;;;1.00;1.00;;;;;22.60;59.27;101352.73;105491;1288;20163;-56
2022/10/19 04:45:17;;;;;;;;;1.00;1.00;;;;;22.61;59.36;101354.14;105603;1280;21020;-55
2022/10/19 04:47:45;;;;;;;;;1.00;1.00;;;;;22.60;59.31;101354.75;105471;1288;20405;-57
2022/10/19 04:50:12;;;;;;;;;1.00;1.00;;;;;22.60;59.45;101345.80;105350;1274;24033;-56
2022/10/19 04:52:39;;;;;;;;;2.00;2.00;;;;;22.60;59.33;101342.52;105401;1298;19690;-56
2022/10/19 04:55:06;;;;;;;;;1.00;1.00;;;;;22.59;59.59;101337.04;105389;1297;19952;-54
2022/10/19 04:57:33;;;;;;;;;;;;;;;22.59;59.54;101333.20;105515;1303;18689;-53
2022/10/19 05:00:01;;;;;;;;;1.00;1.00;;;;;22.60;59.45;101336.96;105544;1274;20786;-55
2022/10/19 05:02:28;;;;;;;;;1.00;1.00;;;;;22.59;59.39;101339.77;105567;1282;19450;-55
2022/10/19 05:04:56;;;;;;;;;1.00;1.00;;;;;22.61;59.51;101343.24;105569;1275;23054;-55
2022/10/19 05:07:23;;;;;;;;;;;;;;;22.62;59.66;101336.73;105586;1296;20671;-56
2022/10/19 05:09:50;;;;;;;;;1.00;1.00;;;;;22.63;59.73;101343.66;105532;1280;19581;-54
2022/10/19 05:12:17;;;;;;;;;2.00;2.00;;;;;22.63;59.90;101340.05;105487;1284;20088;-56
2022/10/19 05:14:45;;;;;;;;;6.00;6.00;;;;;22.62;59.96;101338.65;105444;1291;20935;-55
2022/10/19 05:17:12;;;;;;;;;12.00;12.00;;;;;22.66;60.05;101333.86;105534;1274;18325;-53
2022/10/19 05:19:39;;;;;;;;;18.50;18.00;;;;;22.74;60.74;101331.79;105429;1291;18600;-53
2022/10/19 05:22:07;;;;;;;;;16.00;16.00;;;;;22.79;61.37;101333.27;105613;1296;19330;-54
2022/10/19 05:24:34;;;;;;;;;11.50;11.50;;;;;22.81;61.46;101336.20;105722;1298;18710;-57
2022/10/19 05:27:01;;;;;;;;;11.50;11.50;;;;;22.82;61.68;101336.61;105619;1280;21370;-56
2022/10/19 05:29:29;;;;;;;;;11.00;10.00;;;;;22.81;61.62;101333.42;105669;1274;19483;-55
2022/10/19 05:31:56;;;;;;;;;10.00;9.50;;;;;22.82;61.71;101336.64;105677;1297;19987;-55
2022/10/19 05:34:23;;;;;;;;;7.00;7.00;;;;;22.81;61.43;101340.58;105539;1288;19944;-53
2022/10/19 05:36:50;;;;;;;;;9.00;9.00;;;;;22.79;61.74;101352.52;105719;1274;20752;-56
2022/10/19 05:39:17;;;;;;;;;6.50;6.50;;;;;22.77;61.72;101354.16;105686;1295;23138;-54
2022/10/19 05:41:45;;;;;;;;;6.00;6.00;;;;;22.76;61.67;101356.06;105495;1278;18840;-55
2022/10/19 05:44:12;;;;;;;;;5.00;5.00;;;;;22.79;61.77;101356.14;105504;1274;21068;-54
2022/10/19 05:46:39;;;;;;;;;5.00;5.00;;;;;22.79;61.79;101351.02;105592;1275;18428;-51
2022/10/19 05:49:06;;;;;;;;;7.00;7.00;;;;;22.78;61.70;101347.64;105516;1281;19895;-53
2022/10/19 05:51:34;;;;;;;;;6.00;6.00;;;;;22.78;61.63;101356.41;105586;1279;19299;-54
2022/10/19 05:54:01;;;;;;;;;6.00;5.00;;;;;22.77;61.49;101357.98;105658;1275;19662;-51
2022/10/19 05:56:28;;;;;;;;;5.00;5.00;;;;;22.77;61.49;101355.64;105680;1274;22597;-55
2022/10/19 05:58:55;;;;;;;;;3.00;3.00;;;;;22.75;61.60;101356.25;105653;1288;21087;-52
2022/10/19 06:01:23;;;;;;;;;5.00;5.00;;;;;22.74;61.70;101362.20;105439;1280;19926;-56
2022/10/19 06:03:50;;;;;;;;;2.00;2.00;;;;;22.72;61.69;101365.11;105496;1297;18521;-55
2022/10/19 06:06:17;;;;;;;;;6.00;5.00;;;;;22.70;61.79;101365.85;105532;1300;22207;-54
2022/10/19 06:08:44;;;;;;;;;3.00;3.00;;;;;22.67;61.69;101372.22;105396;1288;19698;-54
2022/10/19 06:11:11;;;;;;;;;5.00;5.00;;;;;22.62;61.25;101372.20;105421;1274;20102;-54
2022/10/19 06:13:39;;;;;;;;;6.00;5.00;;;;;22.58;60.67;101368.35;105492;1294;19444;-54
2022/10/19 06:16:06;;;;;;;;;7.00;7.00;;;;;22.54;60.36;101371.29;105427;1281;21875;-56
2022/10/19 06:18:33;;;;;;;;;7.00;5.00;;;;;22.52;59.77;101380.84;105567;1280;20199;-55
2022/10/19 06:21:00;;;;;;;;;9.00;9.00;;;;;22.49;59.17;101382.84;105475;1274;20843;-54
2022/10/19 06:23:28;;;;;;;;;9.00;7.00;;;;;22.46;59.07;101384.85;105460;1274;22815;-55
2022/10/19 06:25:55;;;;;;;;;6.00;6.00;;;;;22.45;58.63;101385.34;105568;1288;20278;-55
2022/10/19 06:28:22;;;;;;;;;7.00;7.00;;;;;22.43;58.44;101387.30;105588;1291;19435;-56
2022/10/19 06:30:49;;;;;;;;;6.50;6.50;;;;;22.42;58.17;101385.27;105530;1296;18469;-54
2022/10/19 06:33:17;;;;;;;;;7.00;7.00;;;;;22.40;58.04;101386.56;105522;1299;20004;-54
2022/10/19 06:35:44;;;;;;;;;13.00;13.00;;;;;22.40;57.57;101391.11;105461;1291;19612;-56
2022/10/19 06:38:12;;;;;;;;;14.00;13.00;;;;;22.40;57.42;101398.20;105449;1288;19913;-55
2022/10/19 06:40:40;;;;;;;;;10.50;10.00;;;;;22.38;57.26;101399.21;105470;1290;20070;-55
2022/10/19 06:43:07;;;;;;;;;13.00;11.00;;;;;22.38;56.96;101404.08;105417;1282;19987;-52
2022/10/19 06:45:34;;;;;;;;;11.00;10.00;;;;;22.36;56.98;101406.48;105495;1290;22834;-53
2022/10/19 06:48:01;;;;;;;;;16.00;11.00;;;;;22.36;56.49;101408.33;105473;1296;18508;-56
2022/10/19 06:50:30;;;;;;;;;11.00;11.00;;;;;22.35;56.29;101409.91;105500;1296;19283;-54
2022/10/19 06:52:58;;;;;;;;;13.00;11.00;;;;;22.33;56.14;101417.77;105527;1281;20479;-56
2022/10/19 06:55:25;;;;;;;;;10.00;9.00;;;;;22.33;55.91;101423.20;105501;1289;19653;-55
2022/10/19 06:57:52;;;;;;;;;10.50;10.50;;;;;22.31;55.48;101417.09;105626;1288;19347;-54
2022/10/19 07:00:19;;;;;;;;;9.00;9.00;;;;;22.31;55.46;101419.50;105601;1288;18495;-55
2022/10/19 07:02:47;;;;;;;;;14.00;11.00;;;;;22.29;55.32;101416.75;105615;1280;18618;-56
2022/10/19 07:05:14;;;;;;;;;8.00;8.00;;;;;22.29;55.24;101417.13;105574;1274;19258;-55
2022/10/19 07:07:41;;;;;;;;;9.00;9.00;;;;;22.27;55.16;101416.24;105582;1281;19961;-53
2022/10/19 07:10:09;;;;;;;;;10.00;10.00;;;;;22.27;55.07;101419.52;105570;1278;18661;-55
2022/10/19 07:12:36;;;;;;;;;7.00;7.00;;;;;22.25;55.04;101421.41;105665;1296;21037;-52
2022/10/19 07:15:03;;;;;;;;;8.00;8.00;;;;;22.25;55.13;101425.40;105585;1280;22261;-51
2022/10/19 07:17:30;;;;;;;;;;;;;;;22.25;54.75;101430.73;105616;1280;18761;-53
2022/10/19 07:19:58;;;;;;;;;9.00;9.00;;;;;22.25;54.77;101432.52;105586;1296;22606;-55
2022/10/19 07:22:25;;;;;;;;;8.00;8.00;;;;;22.25;54.62;101432.16;105582;1287;19274;-56
2022/10/19 07:24:53;;;;;;;;;7.00;6.00;;;;;22.22;54.41;101432.27;105599;1274;18634;-53
2022/10/19 07:27:20;;;;;;;;;6.50;6.50;;;;;22.22;54.44;101435.15;105466;1280;20655;-56
2022/10/19 07:29:48;;;;;;;;;7.00;7.00;;;;;22.21;54.32;101441.20;105499;1282;18298;-56
2022/10/19 07:32:15;;;;;;;;;7.00;7.00;;;;;22.23;54.36;101438.58;105548;1280;22276;-54
2022/10/19 07:34:42;;;;;;;;;10.00;10.00;;;;;22.24;54.06;101442.88;105566;1282;19181;-55
2022/10/19 07:37:09;;;;;;;;;9.50;8.50;;;;;22.23;53.91;101447.31;105576;1300;18515;-53
2022/10/19 07:39:37;;;;;;;;;10.50;10.50;;;;;22.21;53.92;101447.16;105550;1296;20358;-56
2022/10/19 07:46:52;;;;;;;;;12.00;12.00;;;;;22.18;53.43;101456.39;103044;1325;17676;-82
2022/10/19 07:49:20;;;;;;;;;10.00;7.00;;;;;22.15;52.97;101460.54;105375;1294;20450;-83
2022/10/19 07:51:52;;;;;;;;;7.00;7.00;;;;;22.11;53.32;101465.48;105708;1286;20488;-87
2022/10/19 07:54:20;;;;;;;;;9.00;9.00;;;;;22.12;53.28;101470.36;105858;1304;17789;-81
2022/10/19 07:56:47;;;;;;;;;10.00;10.00;;;;;22.09;53.20;101472.40;105762;1285;22586;-81
2022/10/19 07:59:16;;;;;;;;;13.00;13.00;;;;;22.08;53.10;101475.64;105776;1292;18298;-84
2022/10/19 08:01:43;;;;;;;;;25.00;25.00;;;;;22.07;53.03;101474.30;105953;1285;102169;-84
2022/10/19 08:04:11;;;;;;;;;;;;;;;22.11;53.11;101477.73;105892;1292;18525;-84
2022/10/19 08:06:38;;;;;;;;;18.00;17.00;;;;;22.10;53.27;101476.50;105983;1285;21498;-84
2022/10/19 08:09:06;;;;;;;;;20.00;19.00;;;;;22.07;53.20;101479.54;105943;1285;17985;-82
2022/10/19 08:11:33;;;;;;;;;22.00;22.00;;;;;22.07;53.10;101476.45;106095;1281;22555;-83
2022/10/19 08:14:01;;;;;;;;;13.00;11.50;;;;;22.09;53.14;101476.45;106055;1289;23013;-84
2022/10/19 08:16:29;;;;;;;;;11.50;10.00;;;;;22.08;53.19;101476.75;106096;1283;19007;-84
2022/10/19 08:18:56;;;;;;;;;;;;;;;22.06;52.96;101480.36;106211;1290;20038;-83
2022/10/19 08:21:23;;;;;;;;;19.00;18.00;;;;;22.09;52.92;101485.25;106186;1289;20775;-84
2022/10/19 08:23:51;;;;;;;;;25.00;23.00;;;;;22.08;52.89;101488.96;106173;1285;19646;-83
2022/10/19 08:26:18;;;;;;;;;34.00;33.00;;;;;22.08;52.79;101487.64;106155;1290;18658;-85
2022/10/19 08:28:45;;;;;;;;;25.00;24.50;;;;;22.07;52.71;101490.70;106177;1281;20017;-84
2022/10/19 08:31:13;;;;;;;;;13.00;11.00;;;;;22.05;52.63;101494.38;106217;1282;18144;-85
2022/10/19 08:33:40;;;;;;;;;25.00;23.00;;;;;22.08;52.68;101499.10;106158;1276;19200;-85
2022/10/19 08:36:07;;;;;;;;;10.00;9.00;;;;;22.09;52.69;101501.74;106237;1281;24123;-85
2022/10/19 08:38:34;;;;;;;;;21.50;21.00;;;;;22.06;52.58;101498.94;106244;1282;18142;-86
2022/10/19 08:41:02;;;;;;;;;6.00;6.00;;;;;22.06;52.59;101497.21;106137;1282;23225;-84
2022/10/19 08:43:29;;;;;;;;;10.00;10.00;;;;;22.08;52.79;101500.58;106042;1297;22125;-83
2022/10/19 08:45:57;;;;;;;;;15.50;15.00;;;;;22.12;52.92;101501.41;106255;1297;18002;-84
2022/10/19 08:48:24;;;;;;;;;24.00;22.00;;;;;22.14;52.88;101499.96;106201;1289;18661;-83
2022/10/19 08:50:51;;;;;;;;;23.00;22.00;;;;;22.17;53.14;101506.39;106232;1297;18520;-84
2022/10/19 08:53:19;;;;;;;;;17.00;16.00;;;;;22.18;53.38;101500.08;106235;1275;19535;-84
2022/10/19 08:55:46;;;;;;;;;9.00;8.50;;;;;22.20;53.34;101502.80;106197;1289;18569;-83
2022/10/19 08:58:14;;;;;;;;;17.00;15.33;;;;;22.21;53.56;101513.62;106098;1289;18838;-84
2022/10/19 09:00:41;;;;;;;;;6.00;6.00;;;;;22.22;53.52;101510.07;106061;1299;18190;-84
2022/10/19 09:03:08;;;;;;;;;11.00;11.00;;;;;22.22;53.79;101514.00;106003;1296;22016;-84
2022/10/19 09:05:35;;;;;;;;;9.00;8.00;;;;;22.23;53.86;101514.27;106062;1298;18437;-86
2022/10/19 09:08:03;;;;;;;;;10.50;10.50;;;;;22.25;53.98;101518.77;106088;1298;18096;-88
2022/10/19 09:10:30;;;;;;;;;7.00;6.00;;;;;22.26;53.92;101526.27;106053;1275;19263;-86
2022/10/19 09:12:57;;;;;;;;;11.00;11.00;;;;;22.25;54.15;101523.20;106105;1289;21083;-85
2022/10/19 09:15:25;;;;;;;;;10.00;9.00;;;;;22.22;54.06;101525.85;106053;1298;20815;-84
2022/10/19 09:17:52;;;;;;;;;10.00;9.00;;;;;22.18;53.85;101531.72;106029;1275;21266;-86
2022/10/19 09:20:19;;;;;;;;;10.00;10.00;;;;;22.17;53.88;101534.64;106015;1289;20207;-87
2022/10/19 09:22:47;;;;;;;;;9.00;7.00;;;;;22.14;53.50;101533.61;106001;1289;18637;-87
2022/10/19 09:25:14;;;;;;;;;18.00;17.00;;;;;22.12;53.33;101539.48;106064;1297;20214;-87
2022/10/19 09:27:42;;;;;;;;;7.00;6.00;;;;;22.11;52.85;101545.04;106053;1289;20704;-85
2022/10/19 09:30:09;;;;;;;;;9.00;9.00;;;;;22.12;52.50;101549.16;106054;1289;17777;-84
2022/10/19 09:32:37;;;;;;;;;2.00;2.00;;;;;22.11;52.36;101543.05;105966;1275;18483;-83
2022/10/19 09:35:04;;;;;;;;;9.00;9.00;;;;;22.13;52.42;101547.20;106028;1297;21941;-83
2022/10/19 09:37:31;;;;;;;;;4.00;4.00;;;;;22.20;52.71;101547.55;106053;1298;18580;-84
2022/10/19 09:39:59;;;;;;;;;7.00;7.00;;;;;22.23;52.91;101545.96;106079;1282;20070;-84
2022/10/19 09:42:28;;;;;;;;;6.50;6.00;;;;;22.25;52.88;101543.61;106073;1289;18111;-83
2022/10/19 09:44:55;;;;;;;;;9.00;9.00;;;;;22.23;52.88;101546.64;106293;1280;19046;-83
2022/10/19 09:47:22;;;;;;;;;3.00;3.00;;;;;22.24;53.02;101549.17;106309;1272;20172;-84
2022/10/19 09:49:50;;;;;;;;;5.00;4.00;;;;;22.22;52.87;101551.55;106340;1278;20257;-84
2022/10/19 09:52:17;;;;;;;;;5.50;5.50;;;;;22.19;52.77;101559.00;106322;1278;19659;-84
2022/10/19 09:54:44;;;;;;;;;6.00;5.00;;;;;22.17;52.46;101561.57;106340;1294;21160;-82
2022/10/19 09:57:11;;;;;;;;;5.00;5.00;;;;;22.16;51.77;101566.45;106239;1278;23162;-82
2022/10/19 09:59:39;;;;;;;;;3.00;2.50;;;;;22.18;51.67;101572.02;106281;1286;19544;-83
2022/10/19 10:02:07;;;;;;;;;5.00;4.00;;;;;22.21;51.50;101573.09;106282;1269;22633;-84
2022/10/19 10:04:35;;;;;;;;;3.00;3.00;;;;;22.22;51.56;101572.33;106315;1286;18273;-84
2022/10/19 10:07:02;;;;;;;;;3.50;3.00;;;;;22.19;51.00;101574.86;106269;1279;19558;-82
2022/10/19 10:09:29;;;;;;;;;4.00;2.50;;;;;22.16;50.86;101576.38;106343;1294;23184;-82
2022/10/19 10:11:57;;;;;;;;;3.00;3.00;;;;;22.18;50.67;101581.85;106295;1279;18102;-83
2022/10/19 10:14:24;;;;;;;;;3.00;3.00;;;;;22.17;49.78;101585.63;106320;1274;17881;-83
2022/10/19 10:16:51;;;;;;;;;3.00;2.00;;;;;22.16;49.06;101591.50;106370;1278;21587;-82
2022/10/19 10:19:19;;;;;;;;;3.00;3.00;;;;;22.15;49.23;101600.48;106418;1280;19936;-83
2022/10/19 10:21:46;;;;;;;;;3.00;3.00;;;;;22.11;48.90;101599.46;106430;1294;17801;-83
2022/10/19 10:24:15;;;;;;;;;4.50;2.50;;;;;22.09;48.19;101608.77;106341;1286;18390;-83
2022/10/19 10:26:42;;;;;;;;;2.00;2.00;;;;;22.07;47.70;101611.55;106332;1294;18289;-84
2022/10/19 10:29:10;;;;;;;;;2.00;2.00;;;;;22.07;47.58;101615.16;106298;1278;21199;-82
2022/10/19 10:31:37;;;;;;;;;3.00;3.00;;;;;22.06;47.13;101617.10;106308;1297;19940;-84
2022/10/19 10:34:04;;;;;;;;;3.00;3.00;;;;;22.03;46.73;101623.63;106322;1303;19688;-84
2022/10/19 10:36:32;;;;;;;;;2.50;2.50;;;;;21.93;46.43;101616.33;106404;1287;19262;-84
2022/10/19 10:38:59;;;;;;;;;2.00;2.00;;;;;21.91;46.01;101620.30;106327;1286;18426;-84
2022/10/19 10:41:27;;;;;;;;;2.00;2.00;;;;;21.85;45.66;101622.67;106361;1289;18252;-84
2022/10/19 10:43:55;;;;;;;;;2.00;2.00;;;;;21.74;45.61;101622.40;106351;1285;18072;-84
2022/10/19 10:46:22;;;;;;;;;2.00;2.00;;;;;21.77;45.38;101628.36;106313;1294;18445;-83
2022/10/19 10:48:49;;;;;;;;;2.00;2.00;;;;;21.81;45.07;101624.86;106302;1289;23014;-84
2022/10/19 10:51:17;;;;;;;;;2.00;2.00;;;;;21.79;44.70;101626.39;106289;1278;22879;-83
2022/10/19 10:53:44;;;;;;;;;2.00;2.00;;;;;21.77;44.29;101622.95;106308;1286;19888;-83
2022/10/19 10:56:12;;;;;;;;;2.00;2.00;;;;;21.78;44.09;101623.73;106312;1295;18335;-83
2022/10/19 10:58:39;;;;;;;;;2.00;2.00;;;;;21.73;43.95;101621.88;106341;1286;20115;-84
2022/10/19 11:01:07;;;;;;;;;4.00;4.00;;;;;21.72;43.84;101628.41;106330;1278;23205;-82
2022/10/19 11:03:34;;;;;;;;;4.00;4.00;;;;;21.72;43.86;101625.64;106378;1295;18308;-83
2022/10/19 11:06:02;;;;;;;;;2.00;2.00;;;;;21.66;43.48;101622.70;106361;1289;17989;-83
2022/10/19 11:08:29;;;;;;;;;4.00;3.00;;;;;21.57;43.61;101625.95;106338;1294;18624;-83
2022/10/19 11:10:57;;;;;;;;;2.00;2.00;;;;;21.56;43.57;101624.55;106327;1279;20474;-83
2022/10/19 11:13:24;;;;;;;;;1.50;1.50;;;;;21.59;43.43;101623.04;106378;1294;17989;-83
2022/10/19 11:15:51;;;;;;;;;4.00;4.00;;;;;21.65;43.53;101627.54;106310;1294;18476;-83
2022/10/19 11:18:19;;;;;;;;;4.00;4.00;;;;;21.62;43.32;101626.16;106321;1294;19663;-84
2022/10/19 11:20:46;;;;;;;;;4.00;4.00;;;;;21.52;43.13;101620.88;106326;1285;21991;-84